Terminal Aerodrome Forecast
Issued by NWS Mt. Holly, NJ

Current Version | Previous Version | Text Only | Print | Product List | Glossary On
Versions: 1 2 3 4 5 6 7 8 9 10 11 12 13 14 15 16 17 18 19 20 21 22 23
000
FTUS41 KPHI 300500
TAFPHL
TAF
KPHL 300528Z 3006/3112 32003KT 5SM BR SKC
      TEMPO 3007/3011 2SM BR BKN008
     FM301400 32010KT P6SM SCT050
     FM310500 01003KT P6SM SCT250=

USA.gov is the U.S. government's official web portal to all federal, state and local government web resources and services.